Time;durP1;ratioP1;P1;durP2;ratioP2;P2;SDS_P1;SDS_P2;PMS_P1;PMS_P2;Temp;Humidity;BMP_temperature;BMP_pressure;BME280_temperature;BME280_humidity;BME280_pressure;Samples;Min_cycle;Max_cycle;Signal;HPM_P1;HPM_P2
2022/02/21 00:01:21;;;;;;;9.10;2.10;;;9.00;47.60;;;;;;5047429;28;20193;-93
2022/02/21 00:03:49;;;;;;;7.67;1.80;;;8.80;47.20;;;;;;5047597;28;20181;-91
2022/02/21 00:06:19;;;;;;;6.60;1.93;;;8.80;40.30;;;;;;5051736;28;20196;-89
2022/02/21 00:08:45;;;;;;;10.07;2.37;;;8.80;35.10;;;;;;5048313;28;20217;-90
2022/02/21 00:11:18;;;;;;;10.70;2.37;;;8.80;34.70;;;;;;5051964;28;20154;-90
2022/02/21 00:13:44;;;;;;;9.03;2.27;;;8.80;31.80;;;;;;5050278;28;20216;-88
2022/02/21 00:16:19;;;;;;;5.40;1.63;;;9.00;32.00;;;;;;5048193;28;20162;-88
2022/02/21 00:18:45;;;;;;;6.87;1.90;;;8.80;35.30;;;;;;5045458;28;20176;-87
2022/02/21 00:21:11;;;;;;;10.23;2.20;;;8.80;37.20;;;;;;5041506;28;20193;-88
2022/02/21 00:23:37;;;;;;;7.13;2.07;;;8.80;37.30;;;;;;5042770;28;20178;-90
2022/02/21 00:26:05;;;;;;;5.70;2.17;;;8.70;38.40;;;;;;5047088;28;20289;-88
2022/02/21 00:28:30;;;;;;;6.33;1.87;;;8.70;31.90;;;;;;5056193;28;20201;-93
2022/02/21 00:30:56;;;;;;;7.27;2.03;;;8.70;37.80;;;;;;5055610;28;20229;-89
2022/02/21 00:33:30;;;;;;;7.53;1.87;;;8.70;37.20;;;;;;5055349;28;20172;-90
2022/02/21 00:35:57;;;;;;;7.97;2.07;;;8.60;33.40;;;;;;5056882;28;20189;-91
2022/02/21 00:38:25;;;;;;;6.47;1.67;;;8.60;24.30;;;;;;5055224;28;20172;-91
2022/02/21 00:40:50;;;;;;;5.93;2.10;;;8.60;23.80;;;;;;5055753;28;20193;-91
2022/02/21 00:43:17;;;;;;;5.93;2.03;;;8.80;22.10;;;;;;5053549;28;20188;-89
2022/02/21 00:45:43;;;;;;;3.30;1.43;;;8.50;24.10;;;;;;5052437;28;20176;-89
2022/02/21 00:48:10;;;;;;;5.30;1.60;;;8.50;26.30;;;;;;5047390;28;20217;-90
2022/02/21 00:50:37;;;;;;;8.97;1.63;;;8.50;24.10;;;;;;5045750;28;20253;-91
2022/02/21 00:53:10;;;;;;;8.73;1.83;;;8.50;23.40;;;;;;5042682;28;20166;-91
2022/02/21 00:55:39;;;;;;;5.83;2.07;;;8.40;7.70;;;;;;5038993;28;20177;-91
2022/02/21 00:58:11;;;;;;;9.00;2.73;;;8.40;10.60;;;;;;5047027;28;20185;-92
2022/02/21 01:00:38;;;;;;;9.57;1.80;;;8.40;15.40;;;;;;5043249;28;20166;-90
2022/02/21 01:03:05;;;;;;;5.17;1.50;;;8.40;26.90;;;;;;5044647;28;20173;-91
2022/02/21 01:05:34;;;;;;;7.23;1.93;;;8.30;28.50;;;;;;5044177;28;20538;-90
2022/02/21 01:08:00;;;;;;;6.03;1.80;;;8.30;32.50;;;;;;5039205;28;20186;-90
2022/02/21 01:10:26;;;;;;;5.33;2.13;;;8.20;33.10;;;;;;5039823;28;20235;-91
2022/02/21 01:12:58;;;;;;;5.37;1.73;;;8.10;25.10;;;;;;5043157;28;20189;-92
2022/02/21 01:15:24;;;;;;;7.20;1.80;;;8.10;25.00;;;;;;5040010;28;20256;-92
2022/02/21 01:17:49;;;;;;;7.03;1.70;;;8.00;21.70;;;;;;5039075;28;20216;-91
2022/02/21 01:20:15;;;;;;;6.97;2.00;;;7.90;20.20;;;;;;5038556;28;20197;-92
2022/02/21 01:22:41;;;;;;;9.43;1.90;;;7.80;19.00;;;;;;5022643;28;20272;-91
2022/02/21 01:25:08;;;;;;;5.80;1.63;;;7.90;16.20;;;;;;5040727;28;20173;-92
2022/02/21 01:27:39;;;;;;;4.73;1.80;;;7.90;8.70;;;;;;5040376;28;20228;-86
2022/02/21 01:30:08;;;;;;;4.60;1.57;;;7.90;10.00;;;;;;5038916;28;20176;-90
2022/02/21 01:32:40;;;;;;;6.50;1.73;;;7.80;4.80;;;;;;5046471;28;20174;-90
2022/02/21 01:35:06;;;;;;;4.03;1.60;;;7.80;9.40;;;;;;5047743;28;20245;-91
2022/02/21 01:37:32;;;;;;;6.67;1.80;;;7.80;7.90;;;;;;5045267;28;20264;-91
2022/02/21 01:39:58;;;;;;;5.13;1.40;;;7.70;1.00;;;;;;5041499;28;20612;-89
2022/02/21 01:42:24;;;;;;;10.27;2.17;;;7.70;6.80;;;;;;5049687;28;20180;-89
2022/02/21 01:44:50;;;;;;;5.07;1.97;;;7.70;5.70;;;;;;5033779;28;20177;-85
2022/02/21 01:47:21;;;;;;;6.13;2.13;;;7.70;6.90;;;;;;5047374;28;20255;-88
2022/02/21 01:49:49;;;;;;;6.87;2.10;;;7.70;3.60;;;;;;5047192;28;20169;-86
2022/02/21 01:52:16;;;;;;;8.90;2.27;;;7.60;1.00;;;;;;5051657;28;20150;-90
2022/02/21 01:55:00;;;;;;;5.50;1.63;;;7.60;1.00;;;;;;5047815;28;20241;-90
2022/02/21 01:57:27;;;;;;;6.83;1.97;;;7.60;1.00;;;;;;5052644;28;20189;-92
2022/02/21 01:59:55;;;;;;;8.87;2.10;;;7.60;1.00;;;;;;5055663;28;20174;-89
2022/02/21 02:02:26;;;;;;;6.20;2.73;;;7.60;4.70;;;;;;5051858;28;20228;-86
2022/02/21 02:04:51;;;;;;;6.97;2.33;;;7.50;5.50;;;;;;5056005;28;20232;-89
2022/02/21 02:07:19;;;;;;;8.60;2.17;;;7.60;6.00;;;;;;5056971;28;20216;-91
2022/02/21 02:10:00;;;;;;;8.43;2.40;;;7.50;3.10;;;;;;5056793;28;20162;-89
2022/02/21 02:12:29;;;;;;;6.37;2.03;;;7.50;3.20;;;;;;5050565;28;20179;-88
2022/02/21 02:15:01;;;;;;;5.13;1.97;;;7.50;6.00;;;;;;5045972;28;20260;-89
2022/02/21 02:17:26;;;;;;;7.33;2.63;;;7.70;9.40;;;;;;5041555;28;20204;-89
2022/02/21 02:19:52;;;;;;;5.80;2.10;;;7.40;11.10;;;;;;5043832;28;20504;-90
2022/02/21 02:22:21;;;;;;;11.93;2.60;;;7.40;12.80;;;;;;5056143;28;20237;-92
2022/02/21 02:24:53;;;;;;;8.73;2.13;;;7.40;14.20;;;;;;5057471;28;20168;-90
2022/02/21 02:27:20;;;;;;;8.83;2.40;;;7.40;12.00;;;;;;5055734;28;20217;-86
2022/02/21 02:29:50;;;;;;;11.40;2.00;;;7.40;18.60;;;;;;5053551;28;20554;-89
2022/02/21 02:32:19;;;;;;;9.17;3.03;;;7.40;23.60;;;;;;5042792;28;20170;-88
2022/02/21 02:34:46;;;;;;;10.23;2.53;;;7.30;23.40;;;;;;5039615;28;20186;-88
2022/02/21 02:37:14;;;;;;;9.80;2.80;;;7.40;27.90;;;;;;5044527;28;20170;-91
2022/02/21 02:39:41;;;;;;;7.20;2.30;;;7.30;23.80;;;;;;5041550;28;20177;-90
2022/02/21 02:42:13;;;;;;;8.47;2.53;;;7.30;26.60;;;;;;5039605;28;20178;-90
2022/02/21 02:44:42;;;;;;;7.80;2.53;;;7.30;21.70;;;;;;5038543;28;20165;-88
2022/02/21 02:47:16;;;;;;;9.47;2.50;;;7.20;15.20;;;;;;5039189;28;20205;-94
2022/02/21 02:49:43;;;;;;;9.27;2.70;;;7.10;6.50;;;;;;5038413;28;20174;-90
2022/02/21 02:52:13;;;;;;;9.63;2.70;;;7.20;9.20;;;;;;5023597;28;20177;-90
2022/02/21 02:54:41;;;;;;;6.90;2.27;;;7.10;9.70;;;;;;5040861;28;20177;-91
2022/02/21 02:57:07;;;;;;;11.07;3.20;;;7.00;5.30;;;;;;5041062;28;20173;-88
2022/02/21 02:59:33;;;;;;;10.30;2.63;;;7.00;8.70;;;;;;5040263;28;20212;-89
2022/02/21 03:01:59;;;;;;;12.00;3.03;;;6.90;9.70;;;;;;5040293;28;20257;-89
2022/02/21 03:04:27;;;;;;;8.67;2.63;;;6.90;8.80;;;;;;5042864;28;20260;-89
2022/02/21 03:06:53;;;;;;;10.10;3.27;;;6.90;11.10;;;;;;5041784;28;20162;-91
2022/02/21 03:09:22;;;;;;;10.30;2.70;;;7.00;7.20;;;;;;5045358;28;20182;-90
2022/02/21 03:11:50;;;;;;;7.20;2.80;;;6.90;6.60;;;;;;5055143;28;20180;-90
2022/02/21 03:14:16;;;;;;;10.43;2.80;;;6.90;5.00;;;;;;5038771;28;20181;-91
2022/02/21 03:16:42;;;;;;;8.67;2.70;;;7.00;7.50;;;;;;5052623;28;20224;-90
2022/02/21 03:19:08;;;;;;;11.13;2.77;;;6.90;1.40;;;;;;5050869;28;20256;-88
2022/02/21 03:21:35;;;;;;;9.90;2.43;;;7.00;5.70;;;;;;5053201;28;20197;-90
2022/02/21 03:24:02;;;;;;;8.83;2.80;;;6.90;5.90;;;;;;5046190;28;20173;-91
2022/02/21 03:26:28;;;;;;;11.57;3.33;;;6.80;7.80;;;;;;5053762;28;20194;-89
2022/02/21 03:28:53;;;;;;;14.57;3.37;;;6.90;5.80;;;;;;5059492;28;20247;-88
2022/02/21 03:31:20;;;;;;;11.63;2.97;;;6.80;8.50;;;;;;5059033;28;20180;-88
2022/02/21 03:33:47;;;;;;;11.77;3.40;;;6.80;5.30;;;;;;5060096;28;20178;-87
2022/02/21 03:36:13;;;;;;;9.90;2.80;;;6.80;7.40;;;;;;5054449;28;20166;-91
2022/02/21 03:38:44;;;;;;;14.87;3.40;;;6.80;9.10;;;;;;5038217;28;20264;-84
2022/02/21 03:41:10;;;;;;;10.33;3.20;;;7.00;8.70;;;;;;5055867;28;20252;-89
2022/02/21 03:43:36;;;;;;;14.17;2.83;;;6.80;7.80;;;;;;5056799;28;20174;-92
2022/02/21 03:46:02;;;;;;;13.17;2.97;;;6.80;6.80;;;;;;5055982;28;20204;-89
2022/02/21 03:48:28;;;;;;;14.10;3.07;;;6.90;8.10;;;;;;5053681;28;20209;-90
2022/02/21 03:50:57;;;;;;;11.60;2.60;;;6.90;8.40;;;;;;5049295;28;20177;-91
2022/02/21 03:53:23;;;;;;;11.27;3.13;;;6.90;6.50;;;;;;5043572;28;20204;-92
2022/02/21 03:55:48;;;;;;;10.97;3.00;;;6.90;8.20;;;;;;5043148;28;20178;-88
2022/02/21 03:58:16;;;;;;;12.07;2.97;;;6.90;7.60;;;;;;5046779;28;20189;-87
2022/02/21 04:00:45;;;;;;;12.70;2.60;;;6.90;5.30;;;;;;5033494;28;20189;-88
2022/02/21 04:03:10;;;;;;;8.23;2.80;;;6.90;4.40;;;;;;5040920;28;20263;-89
2022/02/21 04:05:36;;;;;;;11.07;3.20;;;6.90;5.20;;;;;;5041183;28;20579;-92
2022/02/21 04:08:02;;;;;;;10.07;2.70;;;6.90;5.20;;;;;;5041539;28;20205;-91
2022/02/21 04:10:28;;;;;;;10.33;3.10;;;6.90;7.20;;;;;;5045937;28;20165;-88
2022/02/21 04:12:56;;;;;;;12.17;3.00;;;6.90;7.00;;;;;;5048806;28;20173;-90
2022/02/21 04:15:22;;;;;;;6.97;2.20;;;6.90;7.20;;;;;;5052320;28;20181;-90
2022/02/21 04:17:51;;;;;;;11.90;2.20;;;6.90;6.60;;;;;;5046667;28;20162;-92
2022/02/21 04:20:20;;;;;;;11.17;3.60;;;6.90;10.60;;;;;;5042071;28;20229;-93
2022/02/21 04:22:47;;;;;;;7.93;2.50;;;6.90;9.90;;;;;;5045257;28;20242;-90
2022/02/21 04:25:14;;;;;;;10.93;2.30;;;6.90;8.70;;;;;;5041321;28;20229;-90
2022/02/21 04:27:48;;;;;;;8.80;2.53;;;6.90;8.70;;;;;;5042732;28;20223;-90
2022/02/21 04:30:17;;;;;;;5.77;1.90;;;6.90;6.70;;;;;;5044311;28;20193;-89
2022/02/21 04:32:43;;;;;;;8.77;2.70;;;6.90;7.50;;;;;;5040159;28;20247;-91
2022/02/21 04:35:10;;;;;;;7.50;2.57;;;6.90;6.10;;;;;;5027345;28;20190;-93
2022/02/21 04:37:38;;;;;;;6.73;2.27;;;6.90;7.60;;;;;;5049744;28;20236;-91
2022/02/21 04:40:07;;;;;;;8.27;3.07;;;6.90;7.60;;;;;;5049987;28;20249;-91
2022/02/21 04:42:33;;;;;;;9.57;3.10;;;6.90;8.40;;;;;;5051613;28;20177;-92
2022/02/21 04:44:59;;;;;;;8.67;2.17;;;6.90;3.40;;;;;;5045619;28;20178;-89
2022/02/21 04:47:24;;;;;;;7.70;2.43;;;6.90;5.10;;;;;;5045106;28;20237;-88
2022/02/21 04:49:50;;;;;;;8.27;2.40;;;6.90;7.30;;;;;;5041445;28;20178;-90
2022/02/21 04:52:19;;;;;;;10.20;2.60;;;6.90;5.60;;;;;;5041305;28;20212;-89
2022/02/21 04:54:45;;;;;;;8.53;2.87;;;7.00;5.30;;;;;;5039356;28;20268;-92
2022/02/21 04:57:13;;;;;;;8.67;2.17;;;7.00;5.20;;;;;;5042002;28;20196;-91
2022/02/21 04:59:39;;;;;;;7.33;1.90;;;7.00;6.10;;;;;;5026598;28;20178;-92
2022/02/21 05:02:05;;;;;;;8.73;1.93;;;6.80;8.90;;;;;;5044696;28;20593;-88
2022/02/21 05:04:31;;;;;;;7.97;2.33;;;6.90;8.90;;;;;;5039564;28;20183;-90
2022/02/21 05:06:56;;;;;;;9.40;2.70;;;6.90;14.90;;;;;;5041185;28;20170;-91
2022/02/21 05:09:22;;;;;;;6.30;1.93;;;6.70;16.80;;;;;;5044824;28;20195;-88
2022/02/21 05:11:50;;;;;;;5.40;1.83;;;6.70;18.10;;;;;;5044236;28;20186;-90
2022/02/21 05:14:16;;;;;;;10.70;2.20;;;6.70;19.50;;;;;;5039613;28;20187;-88
2022/02/21 05:16:43;;;;;;;5.33;1.63;;;6.60;21.30;;;;;;5039792;28;20276;-90
2022/02/21 05:19:09;;;;;;;11.17;2.60;;;6.60;22.20;;;;;;5040240;28;20158;-90
2022/02/21 05:21:35;;;;;;;6.00;1.67;;;6.50;26.20;;;;;;5045006;28;20186;-90
2022/02/21 05:24:01;;;;;;;6.27;2.13;;;6.50;25.90;;;;;;5045385;28;20169;-92
2022/02/21 05:26:29;;;;;;;4.80;1.73;;;6.50;28.70;;;;;;5042992;28;20213;-92
2022/02/21 05:28:54;;;;;;;8.33;1.53;;;6.50;28.40;;;;;;5042677;28;20205;-90
2022/02/21 05:31:24;;;;;;;6.17;1.60;;;6.50;30.90;;;;;;5048299;28;20178;-92
2022/02/21 05:33:52;;;;;;;7.10;2.30;;;6.40;33.50;;;;;;5041926;28;20181;-90
2022/02/21 05:36:21;;;;;;;8.10;1.93;;;6.60;35.80;;;;;;5040247;28;20188;-89
2022/02/21 05:38:46;;;;;;;5.80;1.47;;;6.30;35.60;;;;;;5049983;28;20180;-91
2022/02/21 05:41:12;;;;;;;8.40;2.13;;;6.30;38.50;;;;;;5051468;28;20193;-90
2022/02/21 05:43:38;;;;;;;7.53;1.90;;;6.20;41.20;;;;;;5052379;28;20195;-89
2022/02/21 05:46:04;;;;;;;8.07;2.53;;;6.20;42.40;;;;;;5051490;28;20239;-90
2022/02/21 05:48:30;;;;;;;7.13;1.60;;;6.30;43.00;;;;;;5041129;28;20201;-91
2022/02/21 05:50:56;;;;;;;6.93;1.97;;;6.20;43.20;;;;;;5038298;28;20557;-90
2022/02/21 05:53:27;;;;;;;8.43;2.03;;;6.40;43.50;;;;;;5040356;28;20172;-90
2022/02/21 05:55:56;;;;;;;8.10;1.97;;;6.10;44.10;;;;;;5026021;28;20190;-90
2022/02/21 05:58:22;;;;;;;7.43;1.70;;;6.20;44.50;;;;;;5052303;28;20169;-92
2022/02/21 06:00:49;;;;;;;8.27;2.13;;;6.10;46.30;;;;;;5055924;28;20174;-84
2022/02/21 06:03:17;;;;;;;6.87;1.97;;;6.00;44.90;;;;;;5048356;28;20177;-91
2022/02/21 06:05:46;;;;;;;7.30;2.00;;;6.00;44.00;;;;;;5047056;28;20237;-89
2022/02/21 06:08:14;;;;;;;4.13;1.77;;;6.00;44.20;;;;;;5049100;28;20205;-90
2022/02/21 06:10:40;;;;;;;6.27;1.80;;;6.00;43.30;;;;;;5044203;28;20188;-88
2022/02/21 06:13:06;;;;;;;8.37;1.97;;;6.00;43.30;;;;;;5042010;28;20173;-88
2022/02/21 06:15:32;;;;;;;8.00;2.07;;;6.00;44.10;;;;;;5023647;28;20245;-91
2022/02/21 06:18:13;;;;;;;9.83;2.23;;;5.90;43.70;;;;;;5043430;28;20166;-91
2022/02/21 06:20:39;;;;;;;8.10;2.03;;;5.90;44.20;;;;;;5042047;28;20201;-91
2022/02/21 06:23:06;;;;;;;5.63;1.90;;;5.90;44.50;;;;;;5031933;28;20181;-90
2022/02/21 06:25:32;;;;;;;7.90;1.90;;;5.90;44.60;;;;;;5047155;28;20208;-88
2022/02/21 06:28:05;;;;;;;8.23;2.40;;;5.90;43.20;;;;;;5045676;28;20248;-88
2022/02/21 06:30:36;;;;;;;9.47;1.93;;;5.90;42.10;;;;;;5037881;28;20165;-90
2022/02/21 06:33:02;;;;;;;10.63;2.40;;;5.90;41.00;;;;;;5054655;28;20256;-91
2022/02/21 06:35:29;;;;;;;8.70;1.83;;;5.80;40.80;;;;;;5043026;28;20185;-89
2022/02/21 06:37:59;;;;;;;6.73;2.07;;;5.80;39.90;;;;;;5040825;28;20185;-86
2022/02/21 06:40:28;;;;;;;10.93;3.20;;;5.80;40.60;;;;;;5041541;28;20193;-89
2022/02/21 06:42:55;;;;;;;8.67;2.00;;;5.80;42.70;;;;;;5041545;28;20181;-89
2022/02/21 06:45:22;;;;;;;11.10;2.17;;;5.80;39.70;;;;;;5034109;28;20185;-83
2022/02/21 06:47:48;;;;;;;8.90;2.67;;;5.80;37.30;;;;;;5011570;28;20213;-88
2022/02/21 06:50:16;;;;;;;9.83;2.20;;;5.80;36.30;;;;;;5034366;28;20188;-92
2022/02/21 06:52:44;;;;;;;9.63;2.00;;;5.80;36.80;;;;;;5044987;28;20201;-89
2022/02/21 06:55:13;;;;;;;9.33;2.50;;;5.80;36.40;;;;;;5046087;28;20177;-94
2022/02/21 06:57:41;;;;;;;8.40;2.50;;;5.80;39.50;;;;;;5043726;28;20597;-87
2022/02/21 07:00:08;;;;;;;10.03;2.40;;;5.80;37.00;;;;;;5047597;28;20241;-88
2022/02/21 07:02:36;;;;;;;9.17;2.67;;;5.80;39.30;;;;;;5054724;28;20213;-88
2022/02/21 07:05:02;;;;;;;9.77;2.13;;;5.80;36.30;;;;;;5050408;28;20249;-91
2022/02/21 07:07:28;;;;;;;9.97;2.03;;;5.70;37.60;;;;;;5051607;28;20273;-84
2022/02/21 07:09:53;;;;;;;9.47;2.10;;;5.80;35.80;;;;;;5052242;28;20208;-87
2022/02/21 07:12:22;;;;;;;9.57;1.60;;;5.90;37.70;;;;;;5049911;28;20186;-85
2022/02/21 07:14:51;;;;;;;8.30;2.43;;;5.90;34.60;;;;;;5052084;28;20173;-85
2022/02/21 07:17:22;;;;;;;8.10;2.13;;;5.90;36.50;;;;;;5048168;28;20192;-89
2022/02/21 07:19:49;;;;;;;10.77;2.50;;;6.00;34.90;;;;;;5043795;28;20193;-86
2022/02/21 07:22:21;;;;;;;7.67;1.80;;;6.30;34.00;;;;;;5047358;28;20165;-88
2022/02/21 07:24:47;;;;;;;8.90;2.77;;;6.10;32.10;;;;;;5044393;28;20197;-87
2022/02/21 07:27:12;;;;;;;5.33;1.90;;;6.20;30.10;;;;;;5047521;28;20224;-87
2022/02/21 07:29:38;;;;;;;10.13;2.43;;;6.20;30.00;;;;;;5058042;28;20174;-87
2022/02/21 07:32:07;;;;;;;6.23;2.10;;;6.20;29.70;;;;;;5058677;28;20178;-87
2022/02/21 07:34:36;;;;;;;7.40;2.23;;;6.30;28.40;;;;;;5060257;28;20184;-88
2022/02/21 07:37:07;;;;;;;8.73;1.90;;;6.30;28.00;;;;;;5041832;28;20153;-85
2022/02/21 07:39:33;;;;;;;9.67;2.10;;;6.40;27.30;;;;;;5056842;28;20182;-86
2022/02/21 07:42:17;;;;;;;8.97;2.07;;;6.40;28.70;;;;;;5056571;28;20198;-86
2022/02/21 07:44:44;;;;;;;10.27;2.30;;;6.40;27.00;;;;;;5046630;28;20276;-88
2022/02/21 07:47:13;;;;;;;10.33;2.40;;;6.40;28.80;;;;;;5042081;28;20264;-91
2022/02/21 07:49:48;;;;;;;10.87;2.63;;;6.50;28.30;;;;;;5026292;28;20617;-89
2022/02/21 07:52:13;;;;;;;9.27;2.27;;;6.50;29.70;;;;;;5042631;28;20165;-92
2022/02/21 07:54:39;;;;;;;9.00;3.00;;;6.50;27.90;;;;;;5043106;28;20212;-89
2022/02/21 07:57:07;;;;;;;7.03;2.30;;;6.60;28.60;;;;;;5043353;28;20165;-88
2022/02/21 07:59:33;;;;;;;11.67;2.30;;;6.60;30.70;;;;;;5044600;28;20182;-87
2022/02/21 08:02:00;;;;;;;12.23;3.50;;;6.90;29.10;;;;;;5026846;28;20186;-93
2022/02/21 08:04:26;;;;;;;9.37;2.50;;;6.70;29.40;;;;;;5043036;28;20182;-91
2022/02/21 08:06:53;;;;;;;11.57;3.37;;;6.80;27.80;;;;;;5042786;28;20577;-93
2022/02/21 08:09:23;;;;;;;7.67;2.27;;;6.80;31.00;;;;;;5043850;28;20227;-92
2022/02/21 08:11:49;;;;;;;11.30;2.53;;;6.80;29.30;;;;;;5050035;28;20208;-87
2022/02/21 08:14:15;;;;;;;12.53;2.93;;;6.80;28.90;;;;;;5044867;28;20173;-89
2022/02/21 08:16:41;;;;;;;12.97;3.07;;;6.90;28.20;;;;;;5055258;28;20213;-87
2022/02/21 08:19:07;;;;;;;10.73;2.87;;;6.90;29.40;;;;;;5048031;28;20166;-89
2022/02/21 08:21:34;;;;;;;10.93;3.20;;;7.00;30.00;;;;;;5047466;28;20204;-87
2022/02/21 08:24:00;;;;;;;10.17;2.53;;;6.90;29.60;;;;;;5044406;28;20634;-87
2022/02/21 08:26:25;;;;;;;13.07;2.73;;;6.90;29.80;;;;;;5048650;28;20220;-88
2022/02/21 08:28:51;;;;;;;11.57;2.43;;;6.90;31.50;;;;;;5055904;28;20193;-86
2022/02/21 08:31:18;;;;;;;12.27;3.00;;;7.00;30.00;;;;;;5056068;28;20188;-87
2022/02/21 08:33:50;;;;;;;10.80;3.07;;;7.00;29.70;;;;;;5051937;28;20185;-88
2022/02/21 08:36:23;;;;;;;13.33;3.30;;;7.10;30.20;;;;;;5044408;28;20174;-86
2022/02/21 08:38:49;;;;;;;12.27;3.47;;;7.20;30.10;;;;;;5043679;28;20533;-88
2022/02/21 08:41:18;;;;;;;11.13;3.13;;;7.20;30.00;;;;;;5042726;28;20200;-86
2022/02/21 08:43:47;;;;;;;12.63;3.20;;;7.20;28.60;;;;;;5041041;28;20178;-89
2022/02/21 08:46:15;;;;;;;14.53;3.00;;;7.20;30.00;;;;;;5039592;28;20231;-87
2022/02/21 08:48:41;;;;;;;12.03;3.07;;;7.20;30.80;;;;;;5037860;28;20198;-87
2022/02/21 08:51:08;;;;;;;15.80;3.77;;;7.30;30.50;;;;;;5038272;28;20268;-87
2022/02/21 08:53:34;;;;;;;11.60;3.30;;;7.20;31.20;;;;;;5021638;28;20182;-86
2022/02/21 08:56:07;;;;;;;16.10;3.67;;;7.30;35.30;;;;;;5038526;28;20681;-88
2022/02/21 08:58:36;;;;;;;12.40;3.90;;;7.30;37.00;;;;;;5038013;28;20205;-89
2022/02/21 09:01:02;;;;;;;17.60;3.80;;;7.20;42.70;;;;;;5038765;28;20217;-87
2022/02/21 09:03:28;;;;;;;17.80;4.33;;;7.30;45.60;;;;;;5020868;28;20375;-86
2022/02/21 09:05:54;;;;;;;13.67;3.40;;;7.20;47.00;;;;;;5040930;28;20177;-88
2022/02/21 09:08:22;;;;;;;10.50;3.27;;;7.20;50.50;;;;;;5038599;28;20216;-86
2022/02/21 09:10:52;;;;;;;15.73;3.27;;;7.20;50.90;;;;;;5036823;28;20189;-86
2022/02/21 09:13:17;;;;;;;11.17;3.17;;;7.20;52.40;;;;;;5037724;28;20197;-86
2022/02/21 09:15:43;;;;;;;17.87;3.37;;;7.20;50.90;;;;;;5038795;28;20178;-87
2022/02/21 09:18:09;;;;;;;13.33;3.20;;;7.20;53.00;;;;;;5039285;28;20242;-87
2022/02/21 09:20:37;;;;;;;9.40;3.00;;;7.20;55.40;;;;;;5039632;28;20201;-86
2022/02/21 09:23:04;;;;;;;11.53;3.97;;;7.30;53.20;;;;;;5038508;28;20173;-85
2022/02/21 09:25:31;;;;;;;9.93;3.17;;;7.20;52.30;;;;;;5036987;28;20181;-87
2022/02/21 09:27:56;;;;;;;14.70;4.03;;;7.30;54.70;;;;;;5035477;28;20276;-86
2022/02/21 09:30:23;;;;;;;13.33;3.10;;;7.30;54.30;;;;;;5036979;28;20182;-87
2022/02/21 09:32:49;;;;;;;15.97;3.83;;;7.40;53.80;;;;;;5037521;28;20548;-87
2022/02/21 09:35:16;;;;;;;20.77;3.53;;;7.30;54.90;;;;;;5037540;28;20173;-85
2022/02/21 09:37:42;;;;;;;15.13;4.13;;;7.40;56.80;;;;;;5037136;28;20162;-88
2022/02/21 09:40:10;;;;;;;16.17;3.50;;;7.40;57.20;;;;;;5036635;28;20505;-86
2022/02/21 09:42:42;;;;;;;14.70;3.30;;;7.50;55.60;;;;;;5035889;28;20170;-86
2022/02/21 09:45:08;;;;;;;16.47;5.17;;;7.50;54.70;;;;;;5036706;28;20239;-88
2022/02/21 09:47:35;;;;;;;15.80;3.57;;;7.60;50.80;;;;;;5036443;28;20261;-87
2022/02/21 09:50:04;;;;;;;12.33;3.50;;;7.60;51.60;;;;;;5036002;28;20571;-85
2022/02/21 09:52:30;;;;;;;16.63;4.47;;;7.60;54.70;;;;;;5036519;28;20173;-85
2022/02/21 09:54:59;;;;;;;13.90;3.37;;;7.70;55.60;;;;;;5036737;28;20196;-86
2022/02/21 09:57:28;;;;;;;16.67;4.33;;;7.60;52.00;;;;;;5036893;28;20203;-88
2022/02/21 09:59:54;;;;;;;13.37;4.10;;;7.70;54.00;;;;;;5040410;28;20833;-85
2022/02/21 10:02:26;;;;;;;13.73;3.37;;;8.00;47.20;;;;;;5037208;28;20161;-87
2022/02/21 10:05:12;;;;;;;14.03;4.20;;;7.80;44.80;;;;;;5036246;28;20695;-86
2022/02/21 10:07:39;;;;;;;20.53;4.07;;;7.90;42.70;;;;;;5035229;28;20201;-87
2022/02/21 10:10:08;;;;;;;14.87;3.80;;;8.00;43.70;;;;;;5036607;28;20173;-87
2022/02/21 10:12:50;;;;;;;23.50;7.67;;;8.00;39.10;;;;;;5036998;28;20174;-86
2022/02/21 10:15:22;;;;;;;16.57;4.53;;;8.00;41.70;;;;;;5036355;28;20173;-88
2022/02/21 10:17:49;;;;;;;17.87;3.60;;;8.00;50.30;;;;;;5016123;28;20179;-86
2022/02/21 10:20:20;;;;;;;14.63;4.67;;;8.10;43.80;;;;;;5017536;28;20577;-86
2022/02/21 10:23:03;;;;;;;15.03;3.50;;;8.20;43.70;;;;;;5019459;28;20185;-86
2022/02/21 10:25:29;;;;;;;15.87;4.87;;;8.40;40.40;;;;;;5000812;28;20763;-83
2022/02/21 10:28:00;;;;;;;22.67;4.97;;;8.20;42.80;;;;;;5024533;28;20207;-85
2022/02/21 10:30:27;;;;;;;14.43;4.47;;;8.30;43.30;;;;;;5029208;28;20230;-86
2022/02/21 10:32:56;;;;;;;15.80;4.63;;;8.30;40.30;;;;;;5026456;28;20214;-87
2022/02/21 10:35:30;;;;;;;19.77;4.33;;;8.40;38.20;;;;;;5018185;28;20171;-86
2022/02/21 10:38:09;;;;;;;21.57;4.93;;;8.50;42.00;;;;;;5021001;28;20215;-86
2022/02/21 10:40:37;;;;;;;14.27;3.43;;;8.70;39.80;;;;;;5026994;28;20205;-85
2022/02/21 10:43:07;;;;;;;24.23;4.70;;;9.00;33.90;;;;;;5021834;28;20166;-87
2022/02/21 10:45:37;;;;;;;17.43;5.73;;;8.90;35.00;;;;;;5023871;28;20181;-86
2022/02/21 10:48:07;;;;;;;16.70;4.03;;;8.80;33.90;;;;;;5040015;28;20228;-87
2022/02/21 10:50:54;;;;;;;15.43;5.67;;;8.80;39.70;;;;;;5035957;28;20241;-85
2022/02/21 10:53:24;;;;;;;13.37;4.50;;;8.70;43.40;;;;;;5038003;28;20223;-85
2022/02/21 10:55:54;;;;;;;16.73;4.90;;;8.50;46.20;;;;;;5038082;28;20186;-85
2022/02/21 10:58:25;;;;;;;17.60;4.27;;;8.40;51.10;;;;;;5039137;28;20267;-84
2022/02/21 11:01:01;;;;;;;23.37;4.93;;;8.40;55.60;;;;;;5036710;28;20610;-85
2022/02/21 11:03:29;;;;;;;18.97;5.50;;;8.30;56.40;;;;;;5036130;28;20185;-86
2022/02/21 11:06:01;;;;;;;16.17;5.73;;;8.20;59.40;;;;;;5036632;28;20645;-85
2022/02/21 11:08:30;;;;;;;19.67;5.80;;;8.10;65.00;;;;;;5036381;28;20296;-86
2022/02/21 11:11:04;;;;;;;20.60;6.80;;;8.00;71.50;;;;;;5036861;28;20219;-88
2022/02/21 11:13:33;;;;;;;22.47;8.37;;;8.00;73.00;;;;;;5040968;28;20177;-86
2022/02/21 11:16:01;;;;;;;42.73;14.37;;;8.10;75.30;;;;;;5040967;28;20177;-88
2022/02/21 11:19:29;;;;;;;19.63;6.27;;;7.90;81.10;;;;;;5025158;28;20184;-88
2022/02/21 11:22:01;;;;;;;15.33;4.90;;;7.80;81.40;;;;;;5021362;23;20233;-85
2022/02/21 11:25:34;;;;;;;18.43;4.77;;;7.70;83.70;;;;;;5036424;28;20178;-86
2022/02/21 11:28:42;;;;;;;24.10;5.80;;;7.60;88.20;;;;;;4965845;28;20211;-88
2022/02/21 11:31:28;;;;;;;24.07;5.70;;;7.60;90.70;;;;;;4965700;28;20251;-88
2022/02/21 11:34:10;;;;;;;26.33;6.17;;;7.50;91.10;;;;;;5018914;28;20194;-84
2022/02/21 11:36:45;;;;;;;22.77;5.70;;;7.70;89.60;;;;;;5030010;28;20186;-85
2022/02/21 11:39:54;;;;;;;17.60;5.60;;;7.70;90.60;;;;;;5033626;28;20174;-89
2022/02/21 11:42:26;;;;;;;24.03;6.30;;;7.70;90.10;;;;;;5024172;28;20178;-94
2022/02/21 11:44:58;;;;;;;26.43;6.13;;;7.70;90.10;;;;;;5025098;28;20170;-86
2022/02/21 11:51:41;;;;;;;18.47;5.80;;;7.90;91.00;;;;;;5030276;28;20178;-88
2022/02/21 11:54:16;;;;;;;21.10;6.17;;;8.00;90.80;;;;;;5027045;28;20242;-86
2022/02/21 11:56:57;;;;;;;30.37;6.80;;;8.00;90.40;;;;;;5027673;28;20170;-88
2022/02/21 11:59:31;;;;;;;23.10;6.33;;;8.00;91.20;;;;;;5029526;28;20174;-87
2022/02/21 12:02:15;;;;;;;25.40;5.40;;;8.00;92.80;;;;;;5027726;28;20209;-86
2022/02/21 12:05:24;;;;;;;28.83;6.33;;;8.00;93.00;;;;;;5027426;28;20179;-85
2022/02/21 12:07:51;;;;;;;25.87;6.90;;;7.90;93.40;;;;;;4969499;28;20679;-87
2022/02/21 12:10:24;;;;;;;27.17;6.77;;;7.90;94.40;;;;;;5022342;28;20206;-87
2022/02/21 12:13:20;;;;;;;18.97;5.90;;;7.90;94.70;;;;;;5028119;28;20178;-86
2022/02/21 12:16:08;;;;;;;27.23;5.73;;;7.90;96.30;;;;;;5021877;28;20208;-89
2022/02/21 12:18:39;;;;;;;30.47;5.63;;;7.80;96.00;;;;;;5023998;28;20177;-87
2022/02/21 12:21:26;;;;;;;26.40;6.70;;;7.90;96.20;;;;;;5020136;28;20210;-88
2022/02/21 12:24:00;;;;;;;20.17;5.97;;;8.00;96.10;;;;;;5019435;28;20695;-87
2022/02/21 12:27:10;;;;;;;19.07;6.47;;;8.10;94.40;;;;;;5021331;28;20261;-89
2022/02/21 12:29:39;;;;;;;31.30;7.63;;;8.20;93.60;;;;;;5020266;28;20190;-88
2022/02/21 12:32:11;;;;;;;25.80;6.47;;;8.40;93.10;;;;;;5020138;28;20214;-86
2022/02/21 12:34:39;;;;;;;21.17;5.67;;;8.40;91.30;;;;;;5018524;28;20185;-86
2022/02/21 12:37:10;;;;;;;17.87;4.90;;;8.50;90.40;;;;;;5020049;28;20623;-88
2022/02/21 12:39:43;;;;;;;18.37;5.03;;;8.50;89.90;;;;;;5019849;28;20171;-87
2022/02/21 12:42:10;;;;;;;20.53;7.03;;;8.50;90.80;;;;;;5021235;28;20217;-89
2022/02/21 12:44:39;;;;;;;23.70;7.97;;;8.40;92.80;;;;;;5018798;28;20182;-87
2022/02/21 12:47:06;;;;;;;34.47;14.43;;;8.40;93.80;;;;;;5019400;28;20181;-88
2022/02/21 12:49:42;;;;;;;29.73;8.77;;;8.30;94.70;;;;;;5018423;28;20213;-90
2022/02/21 12:52:17;;;;;;;15.73;5.50;;;8.30;95.10;;;;;;5021913;28;20170;-88
2022/02/21 12:55:01;;;;;;;22.57;6.47;;;8.40;94.90;;;;;;5021189;28;20182;-89
2022/02/21 12:57:31;;;;;;;18.10;5.03;;;8.40;95.50;;;;;;5018242;28;20185;-88
2022/02/21 12:59:58;;;;;;;26.63;6.63;;;8.50;94.90;;;;;;5020156;28;20587;-88
2022/02/21 13:02:25;;;;;;;19.87;6.40;;;8.50;94.60;;;;;;5018855;28;20185;-87
2022/02/21 13:04:51;;;;;;;16.60;5.63;;;8.50;94.80;;;;;;5019691;28;20649;-88
2022/02/21 13:07:17;;;;;;;24.63;8.73;;;8.50;94.30;;;;;;5020631;28;20178;-88
2022/02/21 13:09:43;;;;;;;16.07;4.90;;;8.60;93.50;;;;;;5018644;28;20174;-88